Time;durP1;ratioP1;P1;durP2;ratioP2;P2;SDS_P1;SDS_P2;PMS_P1;PMS_P2;Temp;Humidity;BMP_temperature;BMP_pressure;BME280_temperature;BME280_humidity;BME280_pressure;Samples;Min_cycle;Max_cycle;Signal;HPM_P1;HPM_P2
2022/07/11 00:09:32;;;;;;;3.90;1.30;;;;;;;12.67;69.11;98719.04;447465;1269;96237;-41
2022/07/11 00:19:40;;;;;;;2.80;2.30;;;;;;;12.70;69.07;98717.45;447587;1268;112438;-41
2022/07/11 00:29:47;;;;;;;1.20;0.80;;;;;;;12.74;69.23;98711.92;447604;1267;108765;-41
2022/07/11 00:39:55;;;;;;;5.30;1.00;;;;;;;12.78;69.37;98708.71;447671;1268;109554;-40
2022/07/11 00:50:02;;;;;;;2.60;1.00;;;;;;;12.85;69.35;98707.34;447673;1268;95676;-40
2022/07/11 01:00:12;;;;;;;1.80;0.80;;;;;;;12.88;69.44;98701.55;447596;1268;96247;-41
2022/07/11 01:10:19;;;;;;;2.10;1.00;;;;;;;12.88;69.61;98696.18;447661;1268;112433;-42
2022/07/11 01:20:27;;;;;;;1.80;1.10;;;;;;;12.80;69.80;98700.54;447711;1258;108830;-42
2022/07/11 01:30:35;;;;;;;2.60;1.50;;;;;;;12.78;69.58;98698.80;447250;1269;108880;-40
2022/07/11 01:40:42;;;;;;;4.60;1.00;;;;;;;12.75;69.80;98695.91;447643;1268;95789;-40
2022/07/11 01:50:49;;;;;;;1.00;0.70;;;;;;;12.72;69.97;98688.66;447549;1267;96624;-40
2022/07/11 02:00:56;;;;;;;2.80;1.30;;;;;;;12.71;70.17;98679.63;447598;1268;111535;-40
2022/07/11 02:11:02;;;;;;;1.10;0.70;;;;;;;12.71;70.34;98674.58;447662;1267;107847;-40
2022/07/11 02:21:09;;;;;;;3.40;1.40;;;;;;;12.70;70.60;98669.05;447621;1268;107858;-41
2022/07/11 02:31:16;;;;;;;4.60;0.70;;;;;;;12.74;70.78;98672.81;447602;1267;95663;-40
2022/07/11 02:41:25;;;;;;;6.80;1.20;;;;;;;12.75;70.99;98671.08;447727;1267;95690;-40
2022/07/11 02:51:31;;;;;;;2.60;1.30;;;;;;;12.78;71.23;98676.06;447634;1267;111240;-40
2022/07/11 03:01:40;;;;;;;1.80;1.30;;;;;;;12.76;71.42;98680.23;447587;1267;107265;-40
2022/07/11 03:11:48;;;;;;;4.40;0.80;;;;;;;12.75;71.67;98694.80;447603;1267;108789;-40
2022/07/11 03:21:55;;;;;;;2.80;1.00;;;;;;;12.80;71.91;98699.58;447573;1266;96283;-40
2022/07/11 03:32:02;;;;;;;3.40;1.60;;;;;;;12.81;71.97;98699.20;447561;1267;96111;-40
2022/07/11 03:42:10;;;;;;;4.60;1.20;;;;;;;12.77;72.24;98700.78;447635;1265;112676;-40
2022/07/11 03:52:18;;;;;;;2.00;1.10;;;;;;;12.83;72.49;98708.11;447551;1266;108345;-40
2022/07/11 04:02:25;;;;;;;5.30;1.70;;;;;;;12.91;72.63;98711.52;447594;1267;108907;-40
2022/07/11 04:12:32;;;;;;;4.00;1.50;;;;;;;13.01;72.59;98711.02;447596;1267;95718;-40
2022/07/11 04:22:40;;;;;;;4.00;1.30;;;;;;;13.11;72.84;98711.70;447604;1268;96524;-40
2022/07/11 04:32:47;;;;;;;4.40;1.10;;;;;;;13.21;72.97;98716.27;447603;1267;112388;-41
2022/07/11 04:42:54;;;;;;;4.60;1.80;;;;;;;13.34;73.10;98706.21;447698;1266;107531;-40
2022/07/11 04:53:01;;;;;;;5.50;1.90;;;;;;;13.61;73.03;98703.58;447621;1266;109046;-41
2022/07/11 05:03:09;;;;;;;4.40;0.90;;;;;;;14.09;72.74;98707.15;447572;1267;96215;-41
2022/07/11 05:13:16;;;;;;;2.60;1.40;;;;;;;14.37;72.49;98708.28;447596;1267;95755;-40
2022/07/11 05:23:24;;;;;;;4.80;2.10;;;;;;;14.75;72.08;98714.27;447591;1267;112426;-40
2022/07/11 05:33:31;;;;;;;6.70;1.50;;;;;;;15.64;72.69;98718.02;447685;1267;108811;-41
2022/07/11 05:43:38;;;;;;;7.30;1.30;;;;;;;17.91;72.17;98716.02;447651;1268;107773;-40
2022/07/11 05:53:46;;;;;;;3.20;1.50;;;;;;;19.54;70.22;98711.23;447615;1268;95735;-39
2022/07/11 06:03:53;;;;;;;6.90;1.00;;;;;;;20.19;67.54;98711.55;447684;1268;96160;-40
2022/07/11 06:14:01;;;;;;;2.90;1.90;;;;;;;20.71;66.08;98709.66;447612;1268;112474;-41
2022/07/11 06:24:08;;;;;;;5.30;1.30;;;;;;;21.16;63.82;98713.27;447677;1267;108837;-40
2022/07/11 06:34:15;;;;;;;3.30;1.20;;;;;;;21.25;61.24;98714.17;447645;1267;109421;-39
2022/07/11 06:44:22;;;;;;;4.50;0.80;;;;;;;21.03;59.36;98707.46;447611;1268;96154;-39
2022/07/11 06:54:34;;;;;;;6.20;1.10;;;;;;;21.45;57.22;98709.83;447676;1268;95730;-39
2022/07/11 07:04:42;;;;;;;3.30;0.80;;;;;;;21.57;56.20;98704.77;447621;1267;112642;-39
2022/07/11 07:14:51;;;;;;;2.50;0.60;;;;;;;21.75;54.53;98703.10;447623;1267;107353;-39
2022/07/11 07:24:58;;;;;;;5.80;0.90;;;;;;;21.98;53.54;98700.64;447634;1268;108753;-39
2022/07/11 07:35:05;;;;;;;2.20;0.60;;;;;;;21.36;52.22;98698.89;447581;1268;96740;-40
2022/07/11 07:45:11;;;;;;;;;;;;;;;20.00;51.39;98706.29;447607;1268;95730;-40
2022/07/11 07:55:19;;;;;;;1.80;0.60;;;;;;;17.48;53.72;98761.80;447626;1268;112432;-40
2022/07/11 08:05:26;;;;;;;1.70;0.60;;;;;;;16.26;56.89;98745.77;447605;1269;108949;-40
2022/07/11 08:15:33;;;;;;;1.40;0.70;;;;;;;17.99;59.69;98727.63;447596;1268;108852;-40
2022/07/11 08:25:41;;;;;;;5.10;2.10;;;;;;;19.38;59.66;98702.68;447603;1268;96784;-39
2022/07/11 08:35:48;;;;;;;2.20;0.90;;;;;;;18.98;59.37;98689.48;447680;1268;96508;-40
2022/07/11 08:45:57;;;;;;;5.30;1.20;;;;;;;19.51;60.55;98671.58;447628;1268;112592;-39
2022/07/11 08:56:06;;;;;;;2.40;0.90;;;;;;;19.81;60.31;98663.31;447394;1269;273153;-39
2022/07/11 09:06:15;;;;;;;6.90;0.90;;;;;;;18.70;60.24;98672.73;447618;1268;106939;-40
2022/07/11 09:16:26;;;;;;;5.80;2.40;;;;;;;18.58;60.52;98685.80;447627;1268;96448;-39
2022/07/11 09:26:42;;;;;;;7.80;1.40;;;;;;;17.96;61.02;98692.34;447715;1268;95946;-39
2022/07/11 09:36:54;;;;;;;5.00;1.90;;;;;;;18.06;61.18;98684.00;447628;1268;111296;-39
2022/07/11 09:47:09;;;;;;;3.20;1.40;;;;;;;18.45;61.52;98673.41;447662;1268;108813;-40
2022/07/11 09:57:17;;;;;;;5.90;0.60;;;;;;;19.35;61.33;98667.80;447596;1268;108352;-40
2022/07/11 10:07:24;;;;;;;1.20;0.50;;;;;;;19.78;59.07;98655.44;447656;1268;96081;-39
2022/07/11 10:17:36;;;;;;;1.80;0.40;;;;;;;19.28;57.11;98661.67;447665;1268;95732;-40
2022/07/11 10:27:59;;;;;;;0.90;0.30;;;;;;;19.53;56.86;98665.73;447633;1268;112698;-40
2022/07/11 10:38:08;;;;;;;3.10;0.30;;;;;;;19.44;55.82;98658.75;447689;1268;108780;-40
2022/07/11 10:48:16;;;;;;;1.40;0.60;;;;;;;19.00;54.84;98671.55;447521;1269;108656;-40
2022/07/11 10:58:31;;;;;;;0.10;0.10;;;;;;;18.51;53.79;98682.84;447676;1268;95822;-39
2022/07/11 11:08:44;;;;;;;0.20;0.20;;;;;;;18.39;54.13;98688.91;447549;1269;95716;-39
2022/07/11 11:18:51;;;;;;;1.10;0.20;;;;;;;18.73;53.09;98686.91;447655;1268;112467;-40
2022/07/11 11:28:59;;;;;;;0.10;0.10;;;;;;;19.10;52.37;98681.84;447741;1268;106924;-41
2022/07/11 11:39:07;;;;;;;3.10;0.20;;;;;;;19.64;52.02;98684.05;447346;1270;107372;-40
2022/07/11 11:49:14;;;;;;;0.50;0.20;;;;;;;19.92;51.53;98682.35;447689;1268;96118;-40
2022/07/11 11:59:30;;;;;;;0.20;0.20;;;;;;;20.36;51.60;98669.65;447724;1268;95987;-40
2022/07/11 12:09:50;;;;;;;1.80;0.30;;;;;;;20.82;50.95;98663.84;447636;1268;112328;-40
2022/07/11 12:19:58;;;;;;;3.40;0.20;;;;;;;20.77;49.39;98657.98;447701;1268;108916;-39
2022/07/11 12:30:06;;;;;;;4.60;0.20;;;;;;;20.46;49.57;98663.60;447627;1268;108821;-40
2022/07/11 12:40:13;;;;;;;;;;;;;;;20.27;50.22;98659.63;447692;1268;96055;-41
2022/07/11 12:50:26;;;;;;;0.90;0.30;;;;;;;20.40;50.62;98656.17;447701;1268;95740;-41
2022/07/11 13:00:35;;;;;;;1.00;0.30;;;;;;;19.43;51.24;98682.06;447622;1268;112678;-40
2022/07/11 13:10:51;;;;;;;2.10;0.70;;;;;;;17.79;53.90;98747.60;447668;1268;108765;-40
2022/07/11 13:21:12;;;;;;;1.30;0.60;;;;;;;15.31;57.09;98812.77;447562;1268;108829;-39
2022/07/11 13:31:19;;;;;;;5.10;1.10;;;;;;;14.51;58.88;98797.30;447607;1268;95687;-39
2022/07/11 13:41:27;;;;;;;2.90;0.80;;;;;;;15.05;60.14;98783.66;447612;1268;96041;-39
2022/07/11 13:51:33;;;;;;;0.90;0.60;;;;;;;15.66;61.04;98771.56;447620;1268;111327;-40
2022/07/11 14:01:40;;;;;;;0.70;0.60;;;;;;;16.46;61.75;98756.80;447690;1268;108831;-40
2022/07/11 14:11:48;;;;;;;2.20;0.70;;;;;;;17.21;62.32;98754.34;447627;1268;108851;-41
2022/07/11 14:21:55;;;;;;;3.90;0.50;;;;;;;17.76;62.02;98752.55;447701;1268;95947;-40
2022/07/11 14:32:03;;;;;;;1.10;0.60;;;;;;;18.10;61.88;98735.77;447585;1268;95672;-40
2022/07/11 14:42:11;;;;;;;4.00;0.90;;;;;;;18.01;61.92;98738.34;447645;1267;112600;-39
2022/07/11 14:52:39;;;;;;;4.20;1.10;;;;;;;17.50;62.35;98746.69;447660;1267;108979;-39
2022/07/11 15:13:11;;;;;;;2.00;0.90;;;;;;;17.63;63.30;98714.31;447626;1267;95996;-41
2022/07/11 15:23:19;;;;;;;1.80;0.80;;;;;;;18.14;63.95;98731.42;447595;1267;95745;-41
2022/07/11 15:33:26;;;;;;;3.50;0.90;;;;;;;18.13;64.04;98726.30;447754;1266;112559;-42
2022/07/11 15:43:34;;;;;;;1.10;0.80;;;;;;;17.97;64.34;98721.67;447644;1267;108852;-42
2022/07/11 15:53:41;;;;;;;1.20;0.70;;;;;;;17.45;64.72;98732.42;447632;1265;108671;-41
2022/07/11 16:03:49;;;;;;;1.60;0.50;;;;;;;15.97;66.33;98768.17;447725;1267;95982;-40
2022/07/11 16:13:57;;;;;;;1.70;0.60;;;;;;;14.14;66.80;98805.13;447660;1267;96339;-41
2022/07/11 16:24:05;;;;;;;4.30;0.70;;;;;;;13.11;67.57;98841.64;447693;1267;112549;-40
2022/07/11 16:34:27;;;;;;;3.80;0.60;;;;;;;13.19;68.46;98825.41;447632;1267;108887;-41
2022/07/11 16:44:35;;;;;;;4.50;1.00;;;;;;;13.62;69.07;98804.97;447584;1267;108792;-41
2022/07/11 16:54:44;;;;;;;3.20;0.90;;;;;;;14.25;69.56;98809.19;447652;1267;96084;-39
2022/07/11 17:04:51;;;;;;;32.70;15.80;;;;;;;14.76;69.97;98812.92;447581;1267;95706;-40
2022/07/11 17:14:58;;;;;;;9.80;3.60;;;;;;;15.06;70.08;98822.88;447620;1265;112312;-40
2022/07/11 17:25:06;;;;;;;4.10;1.70;;;;;;;14.88;69.89;98863.29;447575;1268;108867;-41
2022/07/11 17:35:15;;;;;;;7.80;4.70;;;;;;;14.57;70.05;98856.43;447558;1267;108786;-40
2022/07/11 17:45:23;;;;;;;1.80;1.60;;;;;;;14.53;70.49;98849.80;447565;1268;95647;-40
2022/07/11 17:55:31;;;;;;;0.70;0.60;;;;;;;14.56;70.61;98842.36;447564;1267;96005;-41
2022/07/11 18:05:39;;;;;;;0.80;0.70;;;;;;;14.54;70.77;98841.19;447616;1267;112384;-40
2022/07/11 18:15:46;;;;;;;1.00;0.60;;;;;;;14.55;70.93;98843.73;447616;1266;107754;-40
2022/07/11 18:25:53;;;;;;;5.70;0.70;;;;;;;14.52;71.08;98844.04;447601;1268;108925;-41
2022/07/11 18:36:01;;;;;;;0.90;0.70;;;;;;;14.40;71.11;98841.13;447639;1268;95955;-41
2022/07/11 18:46:09;;;;;;;1.10;0.70;;;;;;;14.10;71.05;98840.58;447630;1268;96372;-40
2022/07/11 18:56:17;;;;;;;1.30;0.90;;;;;;;13.85;71.12;98846.33;447626;1268;112490;-41
2022/07/11 19:06:24;;;;;;;1.90;0.90;;;;;;;13.61;71.46;98845.08;447616;1267;108827;-40
2022/07/11 19:16:32;;;;;;;3.40;1.10;;;;;;;13.49;71.74;98854.57;447552;1268;109137;-40
2022/07/11 19:26:39;;;;;;;5.70;1.80;;;;;;;13.34;72.03;98862.16;447674;1268;96588;-40
2022/07/11 19:36:45;;;;;;;3.50;1.50;;;;;;;13.12;71.95;98863.41;447570;1267;96151;-40
2022/07/11 19:46:58;;;;;;;5.40;1.50;;;;;;;12.94;72.25;98855.83;447623;1267;111065;-41
2022/07/11 20:07:29;;;;;;;4.90;1.60;;;;;;;12.83;72.82;98844.23;447525;1268;108213;-41
2022/07/11 20:17:35;;;;;;;9.10;1.30;;;;;;;12.83;72.96;98843.06;447619;1267;95879;-40
2022/07/11 20:27:42;;;;;;;4.00;1.10;;;;;;;12.79;73.12;98849.59;447653;1268;95692;-40
2022/07/11 20:37:50;;;;;;;2.70;1.50;;;;;;;12.77;73.31;98867.19;447534;1267;112560;-40
2022/07/11 20:47:57;;;;;;;2.00;1.30;;;;;;;12.76;73.46;98875.52;447601;1267;107810;-41
2022/07/11 20:58:05;;;;;;;2.70;1.50;;;;;;;12.71;73.59;98874.95;447184;1267;533704;-40
2022/07/11 21:08:12;;;;;;;2.10;1.30;;;;;;;12.54;73.65;98878.45;447608;1268;95943;-40
2022/07/11 21:18:19;;;;;;;5.30;2.10;;;;;;;12.39;73.67;98882.45;447587;1268;95719;-41
2022/07/11 21:28:27;;;;;;;3.00;1.30;;;;;;;12.31;74.01;98885.85;447563;1268;112405;-40
2022/07/11 21:38:34;;;;;;;1.90;1.00;;;;;;;12.34;74.20;98892.74;447610;1268;108814;-41
2022/07/11 21:48:42;;;;;;;1.70;0.90;;;;;;;12.51;74.69;98894.95;447558;1268;108883;-41
2022/07/11 21:58:49;;;;;;;1.20;1.10;;;;;;;12.58;74.69;98893.50;447550;1268;95688;-42
2022/07/11 22:08:56;;;;;;;1.90;1.10;;;;;;;12.72;74.89;98890.84;447615;1268;96564;-41
2022/07/11 22:19:03;;;;;;;2.20;1.10;;;;;;;12.76;74.93;98889.19;447582;1268;112306;-41
2022/07/11 22:29:11;;;;;;;2.40;0.90;;;;;;;12.86;75.18;98890.83;447633;1268;109188;-41
2022/07/11 22:39:26;;;;;;;2.20;1.20;;;;;;;12.98;75.26;98906.17;447592;1268;108926;-41
2022/07/11 22:49:33;;;;;;;2.10;1.20;;;;;;;13.08;75.31;98910.89;447592;1268;95723;-41
2022/07/11 22:59:40;;;;;;;1.40;1.10;;;;;;;13.06;75.19;98904.20;447606;1268;95711;-41
2022/07/11 23:09:47;;;;;;;2.20;1.10;;;;;;;13.03;75.29;98895.55;447564;1268;113007;-41
2022/07/11 23:19:54;;;;;;;4.30;1.30;;;;;;;13.04;75.58;98892.75;447582;1268;109319;-41
2022/07/11 23:30:01;;;;;;;3.40;1.00;;;;;;;13.13;75.54;98892.84;447624;1268;108716;-40
2022/07/11 23:40:11;;;;;;;3.30;0.90;;;;;;;13.10;75.56;98900.50;447562;1268;95722;-41
2022/07/11 23:50:18;;;;;;;2.60;1.10;;;;;;;13.08;75.71;98905.30;447656;1268;95943;-41
